sensor_id;sensor_type;location;lat;lon;timestamp;pressure;altitude;pressure_sealevel;temperature;humidity
15263;BME280;7733;51.554;13.590;2022-10-16T00:01:29;100157.78;;;16.60;100.00
15263;BME280;7733;51.554;13.590;2022-10-16T00:03:57;100160.72;;;16.54;100.00
15263;BME280;7733;51.554;13.590;2022-10-16T00:06:25;100167.72;;;16.55;100.00
15263;BME280;7733;51.554;13.590;2022-10-16T00:08:51;100171.06;;;16.38;100.00
15263;BME280;7733;51.554;13.590;2022-10-16T00:11:24;100171.31;;;16.54;100.00
15263;BME280;7733;51.554;13.590;2022-10-16T00:13:54;100166.44;;;16.65;100.00
15263;BME280;7733;51.554;13.590;2022-10-16T00:16:20;100166.63;;;16.38;100.00
15263;BME280;7733;51.554;13.590;2022-10-16T00:18:45;100170.38;;;16.55;100.00
15263;BME280;7733;51.554;13.590;2022-10-16T00:21:16;100170.84;;;16.44;100.00
15263;BME280;7733;51.554;13.590;2022-10-16T00:23:42;100171.56;;;16.69;100.00
15263;BME280;7733;51.554;13.590;2022-10-16T00:26:13;100175.13;;;16.68;100.00
15263;BME280;7733;51.554;13.590;2022-10-16T00:28:39;100180.59;;;16.64;100.00
15263;BME280;7733;51.554;13.590;2022-10-16T00:31:08;100175.88;;;16.50;100.00
15263;BME280;7733;51.554;13.590;2022-10-16T00:33:37;100181.31;;;16.47;100.00
15263;BME280;7733;51.554;13.590;2022-10-16T00:36:05;100183.28;;;16.42;100.00
15263;BME280;7733;51.554;13.590;2022-10-16T00:38:31;100187.25;;;16.52;100.00
15263;BME280;7733;51.554;13.590;2022-10-16T00:40:57;100183.94;;;16.47;100.00
15263;BME280;7733;51.554;13.590;2022-10-16T00:43:42;100177.44;;;16.34;100.00
15263;BME280;7733;51.554;13.590;2022-10-16T00:46:38;100181.81;;;16.55;100.00
15263;BME280;7733;51.554;13.590;2022-10-16T00:49:14;100171.88;;;16.40;100.00
15263;BME280;7733;51.554;13.590;2022-10-16T00:54:15;100176.84;;;16.69;100.00
15263;BME280;7733;51.554;13.590;2022-10-16T00:56:42;100179.56;;;16.68;100.00
15263;BME280;7733;51.554;13.590;2022-10-16T00:59:20;100176.09;;;16.66;100.00
15263;BME280;7733;51.554;13.590;2022-10-16T01:01:47;100182.16;;;16.69;100.00
15263;BME280;7733;51.554;13.590;2022-10-16T01:04:13;100184.44;;;16.35;100.00
15263;BME280;7733;51.554;13.590;2022-10-16T01:10:27;100191.34;;;16.17;100.00
15263;BME280;7733;51.554;13.590;2022-10-16T01:13:16;100186.72;;;16.00;100.00
15263;BME280;7733;51.554;13.590;2022-10-16T01:18:58;100189.81;;;16.11;100.00
15263;BME280;7733;51.554;13.590;2022-10-16T01:21:40;100183.03;;;16.04;100.00
15263;BME280;7733;51.554;13.590;2022-10-16T01:24:38;100184.25;;;15.96;100.00
15263;BME280;7733;51.554;13.590;2022-10-16T01:27:26;100190.78;;;15.87;100.00
15263;BME280;7733;51.554;13.590;2022-10-16T01:29:56;100195.22;;;15.87;100.00
15263;BME280;7733;51.554;13.590;2022-10-16T01:32:39;100200.78;;;16.02;100.00
15263;BME280;7733;51.554;13.590;2022-10-16T01:35:23;100202.59;;;16.00;100.00
15263;BME280;7733;51.554;13.590;2022-10-16T01:38:05;100199.28;;;16.17;100.00
15263;BME280;7733;51.554;13.590;2022-10-16T01:40:36;100196.22;;;16.06;100.00
15263;BME280;7733;51.554;13.590;2022-10-16T01:43:09;100197.28;;;16.00;100.00
15263;BME280;7733;51.554;13.590;2022-10-16T01:45:37;100196.22;;;16.28;100.00
15263;BME280;7733;51.554;13.590;2022-10-16T01:48:05;100200.06;;;16.19;100.00
15263;BME280;7733;51.554;13.590;2022-10-16T01:50:38;100188.19;;;16.51;100.00
15263;BME280;7733;51.554;13.590;2022-10-16T01:53:07;100189.38;;;16.44;100.00
15263;BME280;7733;51.554;13.590;2022-10-16T01:55:39;100200.19;;;16.38;100.00
15263;BME280;7733;51.554;13.590;2022-10-16T01:58:10;100205.94;;;16.49;100.00
15263;BME280;7733;51.554;13.590;2022-10-16T02:00:40;100206.38;;;16.59;100.00
15263;BME280;7733;51.554;13.590;2022-10-16T02:03:10;100214.97;;;16.65;100.00
15263;BME280;7733;51.554;13.590;2022-10-16T02:05:45;100215.78;;;16.67;100.00
15263;BME280;7733;51.554;13.590;2022-10-16T02:08:11;100210.81;;;16.58;100.00
15263;BME280;7733;51.554;13.590;2022-10-16T02:10:38;100216.44;;;16.72;100.00
15263;BME280;7733;51.554;13.590;2022-10-16T02:13:46;100216.66;;;16.46;100.00
15263;BME280;7733;51.554;13.590;2022-10-16T02:16:14;100210.00;;;16.36;100.00
15263;BME280;7733;51.554;13.590;2022-10-16T02:18:42;100209.22;;;16.54;100.00
15263;BME280;7733;51.554;13.590;2022-10-16T02:21:26;100205.66;;;16.55;100.00
15263;BME280;7733;51.554;13.590;2022-10-16T02:24:11;100205.66;;;16.55;100.00
15263;BME280;7733;51.554;13.590;2022-10-16T02:29:22;100215.66;;;16.70;100.00
15263;BME280;7733;51.554;13.590;2022-10-16T02:31:55;100225.63;;;16.64;100.00
15263;BME280;7733;51.554;13.590;2022-10-16T02:34:25;100226.53;;;16.85;100.00
15263;BME280;7733;51.554;13.590;2022-10-16T02:36:53;100229.28;;;16.60;100.00
15263;BME280;7733;51.554;13.590;2022-10-16T02:39:20;100222.03;;;16.87;100.00
15263;BME280;7733;51.554;13.590;2022-10-16T02:41:47;100221.53;;;16.77;100.00
15263;BME280;7733;51.554;13.590;2022-10-16T02:44:13;100232.88;;;16.81;100.00
15263;BME280;7733;51.554;13.590;2022-10-16T02:46:39;100225.41;;;16.90;100.00
15263;BME280;7733;51.554;13.590;2022-10-16T02:49:04;100218.09;;;16.75;100.00
15263;BME280;7733;51.554;13.590;2022-10-16T02:51:30;100220.97;;;16.91;100.00
15263;BME280;7733;51.554;13.590;2022-10-16T02:53:56;100228.00;;;16.92;100.00
15263;BME280;7733;51.554;13.590;2022-10-16T02:56:21;100230.91;;;16.64;100.00
15263;BME280;7733;51.554;13.590;2022-10-16T02:58:47;100233.22;;;16.93;100.00
15263;BME280;7733;51.554;13.590;2022-10-16T03:01:12;100226.53;;;16.85;100.00
15263;BME280;7733;51.554;13.590;2022-10-16T03:03:39;100223.47;;;16.94;100.00
15263;BME280;7733;51.554;13.590;2022-10-16T03:06:05;100229.84;;;16.90;100.00
15263;BME280;7733;51.554;13.590;2022-10-16T03:08:31;100231.56;;;16.91;100.00
15263;BME280;7733;51.554;13.590;2022-10-16T03:10:57;100227.41;;;16.85;100.00
15263;BME280;7733;51.554;13.590;2022-10-16T03:13:22;100231.16;;;16.80;100.00
15263;BME280;7733;51.554;13.590;2022-10-16T03:15:48;100222.41;;;17.18;100.00
15263;BME280;7733;51.554;13.590;2022-10-16T03:18:14;100229.66;;;16.94;100.00
15263;BME280;7733;51.554;13.590;2022-10-16T03:20:40;100233.09;;;16.96;100.00
15263;BME280;7733;51.554;13.590;2022-10-16T03:23:06;100227.84;;;17.15;100.00
15263;BME280;7733;51.554;13.590;2022-10-16T03:25:33;100247.06;;;17.00;100.00
15263;BME280;7733;51.554;13.590;2022-10-16T03:27:59;100246.47;;;17.14;100.00
15263;BME280;7733;51.554;13.590;2022-10-16T03:30:24;100244.56;;;17.17;100.00
15263;BME280;7733;51.554;13.590;2022-10-16T03:32:50;100244.41;;;17.20;100.00
15263;BME280;7733;51.554;13.590;2022-10-16T03:35:23;100258.66;;;17.18;100.00
15263;BME280;7733;51.554;13.590;2022-10-16T03:37:50;100255.84;;;17.22;100.00
15263;BME280;7733;51.554;13.590;2022-10-16T03:40:16;100264.09;;;17.15;100.00
15263;BME280;7733;51.554;13.590;2022-10-16T03:42:43;100275.13;;;17.06;100.00
15263;BME280;7733;51.554;13.590;2022-10-16T03:45:10;100277.44;;;17.13;100.00
15263;BME280;7733;51.554;13.590;2022-10-16T03:47:36;100267.47;;;17.39;100.00
15263;BME280;7733;51.554;13.590;2022-10-16T03:50:03;100254.91;;;17.23;100.00
15263;BME280;7733;51.554;13.590;2022-10-16T03:52:29;100252.25;;;17.23;100.00
15263;BME280;7733;51.554;13.590;2022-10-16T03:54:55;100254.69;;;17.28;100.00
15263;BME280;7733;51.554;13.590;2022-10-16T03:57:21;100271.00;;;17.19;100.00
15263;BME280;7733;51.554;13.590;2022-10-16T03:59:46;100273.25;;;17.08;100.00
15263;BME280;7733;51.554;13.590;2022-10-16T04:02:13;100275.19;;;17.04;100.00
15263;BME280;7733;51.554;13.590;2022-10-16T04:04:38;100277.44;;;17.13;100.00
15263;BME280;7733;51.554;13.590;2022-10-16T04:07:04;100277.84;;;17.04;100.00
15263;BME280;7733;51.554;13.590;2022-10-16T04:09:30;100286.03;;;17.18;100.00
15263;BME280;7733;51.554;13.590;2022-10-16T04:11:56;100288.97;;;17.32;100.00
15263;BME280;7733;51.554;13.590;2022-10-16T04:14:22;100284.94;;;17.24;100.00
15263;BME280;7733;51.554;13.590;2022-10-16T04:16:47;100292.53;;;17.31;100.00
15263;BME280;7733;51.554;13.590;2022-10-16T04:19:13;100289.97;;;17.30;100.00
15263;BME280;7733;51.554;13.590;2022-10-16T04:21:39;100294.13;;;17.36;100.00
15263;BME280;7733;51.554;13.590;2022-10-16T04:24:04;100294.31;;;17.11;100.00
15263;BME280;7733;51.554;13.590;2022-10-16T04:26:31;100282.94;;;17.29;100.00
15263;BME280;7733;51.554;13.590;2022-10-16T04:28:57;100295.69;;;16.99;100.00
15263;BME280;7733;51.554;13.590;2022-10-16T04:31:22;100287.50;;;17.05;100.00
15263;BME280;7733;51.554;13.590;2022-10-16T04:33:48;100285.59;;;17.09;100.00
15263;BME280;7733;51.554;13.590;2022-10-16T04:36:14;100282.00;;;17.10;100.00
15263;BME280;7733;51.554;13.590;2022-10-16T04:38:39;100287.09;;;17.14;100.00
15263;BME280;7733;51.554;13.590;2022-10-16T04:41:06;100281.81;;;17.14;100.00
15263;BME280;7733;51.554;13.590;2022-10-16T04:43:33;100278.50;;;17.29;100.00
15263;BME280;7733;51.554;13.590;2022-10-16T04:45:59;100291.09;;;17.24;100.00
15263;BME280;7733;51.554;13.590;2022-10-16T04:48:24;100298.06;;;16.85;100.00
15263;BME280;7733;51.554;13.590;2022-10-16T04:50:50;100300.63;;;17.08;100.00
15263;BME280;7733;51.554;13.590;2022-10-16T04:53:16;100293.63;;;16.85;100.00
15263;BME280;7733;51.554;13.590;2022-10-16T04:55:42;100300.72;;;16.85;100.00
15263;BME280;7733;51.554;13.590;2022-10-16T04:58:08;100293.09;;;16.97;100.00
15263;BME280;7733;51.554;13.590;2022-10-16T05:00:34;100297.41;;;17.00;100.00
15263;BME280;7733;51.554;13.590;2022-10-16T05:03:00;100284.28;;;16.97;100.00
15263;BME280;7733;51.554;13.590;2022-10-16T05:05:27;100291.88;;;17.06;100.00
15263;BME280;7733;51.554;13.590;2022-10-16T05:07:53;100293.59;;;17.07;100.00
15263;BME280;7733;51.554;13.590;2022-10-16T05:10:20;100308.16;;;16.97;100.00
15263;BME280;7733;51.554;13.590;2022-10-16T05:12:46;100322.94;;;16.81;100.00
15263;BME280;7733;51.554;13.590;2022-10-16T05:15:12;100319.94;;;16.90;100.00
15263;BME280;7733;51.554;13.590;2022-10-16T05:17:38;100316.19;;;16.73;100.00
15263;BME280;7733;51.554;13.590;2022-10-16T05:20:04;100305.69;;;16.92;100.00
15263;BME280;7733;51.554;13.590;2022-10-16T05:22:30;100314.91;;;16.84;100.00
15263;BME280;7733;51.554;13.590;2022-10-16T05:24:55;100327.63;;;16.96;100.00
15263;BME280;7733;51.554;13.590;2022-10-16T05:27:21;100323.78;;;16.83;100.00
15263;BME280;7733;51.554;13.590;2022-10-16T05:29:48;100328.16;;;16.84;100.00
15263;BME280;7733;51.554;13.590;2022-10-16T05:32:16;100315.25;;;16.75;100.00
15263;BME280;7733;51.554;13.590;2022-10-16T05:34:42;100328.22;;;16.82;100.00
15263;BME280;7733;51.554;13.590;2022-10-16T05:37:09;100329.53;;;16.92;100.00
15263;BME280;7733;51.554;13.590;2022-10-16T05:39:34;100332.19;;;16.70;100.00
15263;BME280;7733;51.554;13.590;2022-10-16T05:42:00;100331.88;;;16.78;100.00
15263;BME280;7733;51.554;13.590;2022-10-16T05:44:25;100341.19;;;16.88;100.00
15263;BME280;7733;51.554;13.590;2022-10-16T05:46:51;100334.91;;;16.91;100.00
15263;BME280;7733;51.554;13.590;2022-10-16T05:49:17;100340.34;;;16.88;100.00
15263;BME280;7733;51.554;13.590;2022-10-16T05:51:49;100341.94;;;16.92;100.00
15263;BME280;7733;51.554;13.590;2022-10-16T05:54:14;100340.94;;;16.94;100.00
15263;BME280;7733;51.554;13.590;2022-10-16T05:56:40;100363.13;;;16.70;100.00
15263;BME280;7733;51.554;13.590;2022-10-16T05:59:06;100363.00;;;16.73;100.00
15263;BME280;7733;51.554;13.590;2022-10-16T06:01:31;100362.75;;;16.79;100.00
15263;BME280;7733;51.554;13.590;2022-10-16T06:03:58;100358.88;;;16.88;100.00
15263;BME280;7733;51.554;13.590;2022-10-16T06:06:26;100352.78;;;16.86;100.00
15263;BME280;7733;51.554;13.590;2022-10-16T06:08:55;100355.69;;;16.56;100.00
15263;BME280;7733;51.554;13.590;2022-10-16T06:11:28;100362.41;;;16.65;100.00
15263;BME280;7733;51.554;13.590;2022-10-16T06:13:57;100365.47;;;16.78;100.00
15263;BME280;7733;51.554;13.590;2022-10-16T06:16:25;100368.69;;;16.86;100.00
15263;BME280;7733;51.554;13.590;2022-10-16T06:18:53;100373.16;;;16.60;100.00
15263;BME280;7733;51.554;13.590;2022-10-16T06:21:25;100386.38;;;16.62;100.00
15263;BME280;7733;51.554;13.590;2022-10-16T06:23:52;100378.97;;;16.71;100.00
15263;BME280;7733;51.554;13.590;2022-10-16T06:26:23;100371.22;;;16.65;100.00
15263;BME280;7733;51.554;13.590;2022-10-16T06:28:49;100372.97;;;16.43;100.00
15263;BME280;7733;51.554;13.590;2022-10-16T06:31:16;100370.78;;;16.54;100.00
15263;BME280;7733;51.554;13.590;2022-10-16T06:33:42;100381.03;;;16.63;100.00
15263;BME280;7733;51.554;13.590;2022-10-16T06:36:15;100379.22;;;16.64;100.00
15263;BME280;7733;51.554;13.590;2022-10-16T06:38:42;100382.03;;;16.59;100.00
15263;BME280;7733;51.554;13.590;2022-10-16T06:41:15;100389.50;;;16.73;100.00
15263;BME280;7733;51.554;13.590;2022-10-16T06:43:41;100390.59;;;16.67;100.00
15263;BME280;7733;51.554;13.590;2022-10-16T06:46:10;100390.00;;;16.83;100.00
15263;BME280;7733;51.554;13.590;2022-10-16T06:48:36;100389.81;;;16.87;100.00
15263;BME280;7733;51.554;13.590;2022-10-16T06:51:18;100405.66;;;16.89;100.00
15263;BME280;7733;51.554;13.590;2022-10-16T06:53:53;100409.59;;;17.00;100.00
15263;BME280;7733;51.554;13.590;2022-10-16T06:56:23;100407.50;;;16.87;100.00
15263;BME280;7733;51.554;13.590;2022-10-16T06:58:50;100402.81;;;16.93;100.00
15263;BME280;7733;51.554;13.590;2022-10-16T07:01:18;100403.66;;;16.94;100.00
15263;BME280;7733;51.554;13.590;2022-10-16T07:03:45;100405.66;;;17.11;100.00
15263;BME280;7733;51.554;13.590;2022-10-16T07:06:15;100412.69;;;17.12;100.00
15263;BME280;7733;51.554;13.590;2022-10-16T07:08:44;100404.97;;;17.27;100.00
15263;BME280;7733;51.554;13.590;2022-10-16T07:11:16;100413.53;;;17.34;100.00
15263;BME280;7733;51.554;13.590;2022-10-16T07:13:44;100414.81;;;17.46;100.00
15263;BME280;7733;51.554;13.590;2022-10-16T07:16:15;100407.44;;;17.52;100.00
15263;BME280;7733;51.554;13.590;2022-10-16T07:18:42;100403.28;;;17.47;100.00
15263;BME280;7733;51.554;13.590;2022-10-16T07:21:21;100418.00;;;17.54;100.00
15263;BME280;7733;51.554;13.590;2022-10-16T07:23:55;100427.94;;;17.49;100.00
15263;BME280;7733;51.554;13.590;2022-10-16T07:26:23;100434.91;;;17.51;100.00
15263;BME280;7733;51.554;13.590;2022-10-16T07:28:49;100432.41;;;17.26;100.00
15263;BME280;7733;51.554;13.590;2022-10-16T07:31:17;100441.78;;;17.55;100.00
15263;BME280;7733;51.554;13.590;2022-10-16T07:33:44;100441.59;;;17.60;100.00
15263;BME280;7733;51.554;13.590;2022-10-16T07:36:12;100439.53;;;17.68;100.00
15263;BME280;7733;51.554;13.590;2022-10-16T07:38:38;100444.72;;;17.71;100.00
15263;BME280;7733;51.554;13.590;2022-10-16T07:41:07;100436.88;;;17.88;100.00
15263;BME280;7733;51.554;13.590;2022-10-16T07:43:33;100453.09;;;17.82;100.00
15263;BME280;7733;51.554;13.590;2022-10-16T07:45:59;100455.97;;;17.97;100.00
15263;BME280;7733;51.554;13.590;2022-10-16T07:48:32;100449.59;;;18.01;100.00
15263;BME280;7733;51.554;13.590;2022-10-16T07:51:00;100449.59;;;18.01;100.00
15263;BME280;7733;51.554;13.590;2022-10-16T07:53:27;100450.00;;;18.12;100.00
15263;BME280;7733;51.554;13.590;2022-10-16T07:56:02;100443.69;;;18.14;100.00
15263;BME280;7733;51.554;13.590;2022-10-16T07:58:28;100437.59;;;18.12;100.00
15263;BME280;7733;51.554;13.590;2022-10-16T08:00:55;100445.44;;;18.15;100.00
15263;BME280;7733;51.554;13.590;2022-10-16T08:03:21;100445.97;;;18.03;100.00
15263;BME280;7733;51.554;13.590;2022-10-16T08:05:47;100457.91;;;18.13;100.00
15263;BME280;7733;51.554;13.590;2022-10-16T08:08:17;100445.06;;;18.43;100.00
15263;BME280;7733;51.554;13.590;2022-10-16T08:10:44;100438.69;;;18.47;100.00
15263;BME280;7733;51.554;13.590;2022-10-16T08:13:10;100437.44;;;18.54;100.00
15263;BME280;7733;51.554;13.590;2022-10-16T08:15:36;100437.41;;;18.75;100.00
15263;BME280;7733;51.554;13.590;2022-10-16T08:18:04;100442.03;;;18.90;100.00
15263;BME280;7733;51.554;13.590;2022-10-16T08:20:32;100443.72;;;19.10;100.00
15263;BME280;7733;51.554;13.590;2022-10-16T08:22:59;100449.59;;;19.17;100.00
15263;BME280;7733;51.554;13.590;2022-10-16T08:25:26;100452.88;;;18.86;100.00
15263;BME280;7733;51.554;13.590;2022-10-16T08:27:51;100449.09;;;19.27;100.00
15263;BME280;7733;51.554;13.590;2022-10-16T08:30:20;100450.84;;;19.09;100.00
15263;BME280;7733;51.554;13.590;2022-10-16T08:32:46;100461.81;;;19.02;100.00
15263;BME280;7733;51.554;13.590;2022-10-16T08:35:13;100484.19;;;18.79;100.00
15263;BME280;7733;51.554;13.590;2022-10-16T08:37:39;100485.91;;;18.99;100.00
15263;BME280;7733;51.554;13.590;2022-10-16T08:40:16;100496.41;;;18.83;100.00
15263;BME280;7733;51.554;13.590;2022-10-16T08:45:53;100508.72;;;19.04;100.00
15263;BME280;7733;51.554;13.590;2022-10-16T08:48:35;100512.31;;;19.03;100.00
15263;BME280;7733;51.554;13.590;2022-10-16T08:51:11;100511.22;;;19.07;100.00
15263;BME280;7733;51.554;13.590;2022-10-16T08:53:52;100506.38;;;19.15;100.00
15263;BME280;7733;51.554;13.590;2022-10-16T08:56:19;100505.38;;;19.18;100.00
15263;BME280;7733;51.554;13.590;2022-10-16T08:58:46;100506.66;;;19.47;100.00
15263;BME280;7733;51.554;13.590;2022-10-16T09:01:16;100515.91;;;19.57;100.00
15263;BME280;7733;51.554;13.590;2022-10-16T09:04:21;100519.25;;;19.62;100.00
15263;BME280;7733;51.554;13.590;2022-10-16T09:07:12;100521.69;;;19.48;100.00
15263;BME280;7733;51.554;13.590;2022-10-16T09:10:28;100516.91;;;19.73;100.00
15263;BME280;7733;51.554;13.590;2022-10-16T09:13:28;100523.44;;;20.02;100.00
15263;BME280;7733;51.554;13.590;2022-10-16T09:16:15;100524.84;;;20.10;100.00
15263;BME280;7733;51.554;13.590;2022-10-16T09:19:17;100519.03;;;19.84;100.00
15263;BME280;7733;51.554;13.590;2022-10-16T09:21:46;100517.53;;;19.96;100.00
15263;BME280;7733;51.554;13.590;2022-10-16T09:24:19;100524.66;;;20.13;100.00
15263;BME280;7733;51.554;13.590;2022-10-16T09:26:47;100525.69;;;20.10;100.00
15263;BME280;7733;51.554;13.590;2022-10-16T09:29:14;100520.97;;;20.32;99.93
15263;BME280;7733;51.554;13.590;2022-10-16T09:31:42;100524.97;;;20.41;98.98
15263;BME280;7733;51.554;13.590;2022-10-16T09:34:28;100536.88;;;20.17;99.87
15263;BME280;7733;51.554;13.590;2022-10-16T09:36:57;100533.84;;;20.24;98.82
15263;BME280;7733;51.554;13.590;2022-10-16T09:39:24;100546.84;;;20.13;98.33
15263;BME280;7733;51.554;13.590;2022-10-16T09:41:50;100543.41;;;20.11;97.76
15263;BME280;7733;51.554;13.590;2022-10-16T09:44:29;100552.50;;;20.07;99.01
15263;BME280;7733;51.554;13.590;2022-10-16T09:47:26;100553.44;;;20.06;98.92
15263;BME280;7733;51.554;13.590;2022-10-16T09:49:58;100555.69;;;20.31;98.15
15263;BME280;7733;51.554;13.590;2022-10-16T09:52:28;100559.09;;;20.52;97.79
15263;BME280;7733;51.554;13.590;2022-10-16T09:54:56;100563.38;;;20.54;97.20
15263;BME280;7733;51.554;13.590;2022-10-16T09:57:24;100565.81;;;20.42;96.45
15263;BME280;7733;51.554;13.590;2022-10-16T09:59:56;100568.31;;;20.10;96.35
15263;BME280;7733;51.554;13.590;2022-10-16T10:02:37;100555.16;;;20.24;96.39
15263;BME280;7733;51.554;13.590;2022-10-16T10:05:06;100544.88;;;20.34;96.62
15263;BME280;7733;51.554;13.590;2022-10-16T10:07:44;100550.59;;;20.61;95.43
15263;BME280;7733;51.554;13.590;2022-10-16T10:10:23;100556.56;;;20.66;95.42
15263;BME280;7733;51.554;13.590;2022-10-16T10:12:50;100543.66;;;20.74;95.60
15263;BME280;7733;51.554;13.590;2022-10-16T10:15:16;100552.19;;;20.48;96.45
15263;BME280;7733;51.554;13.590;2022-10-16T10:17:55;100549.94;;;20.73;95.47
15263;BME280;7733;51.554;13.590;2022-10-16T10:22:48;100549.47;;;20.98;94.40
15263;BME280;7733;51.554;13.590;2022-10-16T10:25:36;100558.03;;;21.05;94.59
15263;BME280;7733;51.554;13.590;2022-10-16T10:30:52;100565.56;;;20.96;94.94
15263;BME280;7733;51.554;13.590;2022-10-16T10:33:38;100563.00;;;21.28;94.22
15263;BME280;7733;51.554;13.590;2022-10-16T10:36:39;100566.25;;;21.33;94.12
15263;BME280;7733;51.554;13.590;2022-10-16T10:39:20;100569.63;;;21.52;93.85
15263;BME280;7733;51.554;13.590;2022-10-16T10:45:17;100574.69;;;20.92;94.87
15263;BME280;7733;51.554;13.590;2022-10-16T10:50:52;100573.25;;;21.18;94.40
15263;BME280;7733;51.554;13.590;2022-10-16T10:53:42;100564.09;;;21.24;94.79
15263;BME280;7733;51.554;13.590;2022-10-16T10:56:43;100554.75;;;21.15;94.44
15263;BME280;7733;51.554;13.590;2022-10-16T11:00:02;100558.84;;;21.38;94.98
15263;BME280;7733;51.554;13.590;2022-10-16T11:05:42;100568.31;;;21.28;94.15
15263;BME280;7733;51.554;13.590;2022-10-16T11:08:19;100574.28;;;21.49;93.58
15263;BME280;7733;51.554;13.590;2022-10-16T11:11:11;100579.16;;;21.41;93.66
15263;BME280;7733;51.554;13.590;2022-10-16T11:14:21;100583.22;;;21.32;94.12
15263;BME280;7733;51.554;13.590;2022-10-16T11:16:58;100571.06;;;21.58;93.34
15263;BME280;7733;51.554;13.590;2022-10-16T11:19:38;100572.88;;;21.58;91.69
15263;BME280;7733;51.554;13.590;2022-10-16T11:22:22;100577.03;;;21.47;92.18
15263;BME280;7733;51.554;13.590;2022-10-16T11:25:00;100569.69;;;21.35;93.05
15263;BME280;7733;51.554;13.590;2022-10-16T11:27:49;100577.69;;;21.35;92.63
15263;BME280;7733;51.554;13.590;2022-10-16T11:30:28;100570.31;;;21.24;92.95
15263;BME280;7733;51.554;13.590;2022-10-16T11:38:19;100580.53;;;21.32;92.75
15263;BME280;7733;51.554;13.590;2022-10-16T11:40:50;100587.16;;;21.41;92.94
15263;BME280;7733;51.554;13.590;2022-10-16T11:43:38;100587.19;;;21.25;93.24
15263;BME280;7733;51.554;13.590;2022-10-16T11:46:17;100582.84;;;21.22;93.24
15263;BME280;7733;51.554;13.590;2022-10-16T11:48:59;100582.44;;;21.30;92.93
15263;BME280;7733;51.554;13.590;2022-10-16T11:51:35;100575.47;;;21.28;93.50
15263;BME280;7733;51.554;13.590;2022-10-16T11:54:36;100577.69;;;21.35;92.88
15263;BME280;7733;51.554;13.590;2022-10-16T11:57:23;100581.31;;;21.34;93.64
15263;BME280;7733;51.554;13.590;2022-10-16T12:00:27;100579.25;;;21.39;92.09
15263;BME280;7733;51.554;13.590;2022-10-16T12:03:17;100589.16;;;21.37;92.76
15263;BME280;7733;51.554;13.590;2022-10-16T12:06:00;100590.19;;;21.50;91.94
15263;BME280;7733;51.554;13.590;2022-10-16T12:08:28;100595.88;;;21.29;92.97
15263;BME280;7733;51.554;13.590;2022-10-16T12:11:09;100603.03;;;21.44;92.32
15263;BME280;7733;51.554;13.590;2022-10-16T12:13:45;100599.16;;;21.49;93.33
15263;BME280;7733;51.554;13.590;2022-10-16T12:18:44;100598.53;;;21.76;92.29
15263;BME280;7733;51.554;13.590;2022-10-16T12:21:13;100591.75;;;21.54;91.98
15263;BME280;7733;51.554;13.590;2022-10-16T12:23:54;100605.94;;;21.86;91.99
15263;BME280;7733;51.554;13.590;2022-10-16T12:26:31;100599.75;;;21.54;91.59
15263;BME280;7733;51.554;13.590;2022-10-16T12:29:40;100602.66;;;21.81;91.14
15263;BME280;7733;51.554;13.590;2022-10-16T12:32:34;100605.50;;;21.78;91.24
15263;BME280;7733;51.554;13.590;2022-10-16T12:35:03;100612.34;;;21.84;91.46
15263;BME280;7733;51.554;13.590;2022-10-16T12:37:36;100611.44;;;21.99;90.45
15263;BME280;7733;51.554;13.590;2022-10-16T12:40:29;100600.00;;;21.81;90.15
15263;BME280;7733;51.554;13.590;2022-10-16T12:42:56;100607.31;;;21.78;89.55
15263;BME280;7733;51.554;13.590;2022-10-16T12:45:33;100610.94;;;21.77;90.13
15263;BME280;7733;51.554;13.590;2022-10-16T12:48:19;100602.16;;;21.91;90.30
15263;BME280;7733;51.554;13.590;2022-10-16T12:50:45;100615.41;;;21.92;90.43
15263;BME280;7733;51.554;13.590;2022-10-16T12:53:21;100615.53;;;22.06;90.36
15263;BME280;7733;51.554;13.590;2022-10-16T12:56:21;100624.88;;;21.82;90.32
15263;BME280;7733;51.554;13.590;2022-10-16T13:02:55;100624.66;;;21.86;89.72
15263;BME280;7733;51.554;13.590;2022-10-16T13:05:59;100632.41;;;21.91;89.88
15263;BME280;7733;51.554;13.590;2022-10-16T13:11:56;100634.19;;;21.75;90.94
15263;BME280;7733;51.554;13.590;2022-10-16T13:14:57;100627.22;;;21.88;90.36
15263;BME280;7733;51.554;13.590;2022-10-16T13:20:35;100624.22;;;22.10;89.98
15263;BME280;7733;51.554;13.590;2022-10-16T13:23:19;100644.19;;;22.03;90.73
15263;BME280;7733;51.554;13.590;2022-10-16T13:26:12;100638.50;;;21.93;91.13
15263;BME280;7733;51.554;13.590;2022-10-16T13:28:42;100633.78;;;22.14;91.17
15263;BME280;7733;51.554;13.590;2022-10-16T13:31:21;100636.25;;;22.17;91.48
15263;BME280;7733;51.554;13.590;2022-10-16T13:33:53;100639.38;;;22.25;90.63
15263;BME280;7733;51.554;13.590;2022-10-16T13:36:25;100643.19;;;22.05;91.36
15263;BME280;7733;51.554;13.590;2022-10-16T13:42:07;100650.38;;;22.19;91.60
15263;BME280;7733;51.554;13.590;2022-10-16T13:44:51;100656.66;;;22.34;90.87
15263;BME280;7733;51.554;13.590;2022-10-16T13:47:26;100644.72;;;22.25;91.13
15263;BME280;7733;51.554;13.590;2022-10-16T13:50:12;100643.19;;;22.05;89.64
15263;BME280;7733;51.554;13.590;2022-10-16T13:52:38;100649.72;;;22.15;89.18
15263;BME280;7733;51.554;13.590;2022-10-16T13:55:14;100642.31;;;21.89;92.47
15263;BME280;7733;51.554;13.590;2022-10-16T13:57:41;100650.94;;;22.10;92.09
15263;BME280;7733;51.554;13.590;2022-10-16T14:00:26;100657.31;;;22.07;91.63
15263;BME280;7733;51.554;13.590;2022-10-16T14:03:14;100657.78;;;21.98;91.65